createdAt,value
2022-07-27T00:00:46.453Z,100936.84
2022-07-27T00:03:12.922Z,100935.22
2022-07-27T00:05:39.319Z,100939.56
2022-07-27T00:08:05.721Z,100930.59
2022-07-27T00:10:32.124Z,100939.88
2022-07-27T00:12:58.486Z,100939.06
2022-07-27T00:15:24.799Z,100948.06
2022-07-27T00:17:51.104Z,100940.94
2022-07-27T00:20:17.826Z,100949.13
2022-07-27T00:22:44.257Z,100949.97
2022-07-27T00:25:10.627Z,100952.16
2022-07-27T00:27:39.606Z,100952.97
2022-07-27T00:30:06.013Z,100955.97
2022-07-27T00:32:32.605Z,100956.78
2022-07-27T00:34:58.991Z,100955.97
2022-07-27T00:37:25.603Z,100958.69
2022-07-27T00:39:52.393Z,100961.41
2022-07-27T00:42:18.744Z,100961.69
2022-07-27T00:44:45.186Z,100955.44
2022-07-27T00:47:11.652Z,100963.63
2022-07-27T00:49:38.165Z,100960.06
2022-07-27T00:52:04.716Z,100957.34
2022-07-27T00:54:31.148Z,100953.50
2022-07-27T00:56:57.659Z,100961.16
2022-07-27T00:59:24.191Z,100961.16
2022-07-27T01:01:50.600Z,100959.53
2022-07-27T01:04:21.800Z,100956.81
2022-07-27T01:06:48.361Z,100964.16
2022-07-27T01:09:18.358Z,100966.91
2022-07-27T01:11:44.797Z,100974.28
2022-07-27T01:14:11.354Z,100969.63
2022-07-27T01:16:37.981Z,100963.38
2022-07-27T01:19:04.400Z,100967.16
2022-07-27T01:21:34.180Z,100958.19
2022-07-27T01:24:00.785Z,100960.94
2022-07-27T01:26:27.175Z,100965.53
2022-07-27T01:28:53.659Z,100962.00
2022-07-27T01:31:20.137Z,100975.63
2022-07-27T01:33:46.683Z,100975.09
2022-07-27T01:36:13.050Z,100971.53
2022-07-27T01:38:39.398Z,100981.38
2022-07-27T01:41:05.795Z,100989.84
2022-07-27T01:43:35.740Z,100983.00
2022-07-27T01:46:02.599Z,100983.56
2022-07-27T01:48:29.104Z,100989.00
2022-07-27T01:50:55.657Z,100989.00
2022-07-27T01:53:22.187Z,100983.56
2022-07-27T01:55:48.544Z,100984.66
2022-07-27T01:58:22.922Z,100992.00
2022-07-27T02:00:49.340Z,100991.22
2022-07-27T02:03:15.868Z,100998.56
2022-07-27T02:05:42.375Z,100988.47
2022-07-27T02:08:11.607Z,100988.47
2022-07-27T02:10:38.106Z,100986.03
2022-07-27T02:13:22.124Z,100987.66
2022-07-27T02:15:49.515Z,100982.47
2022-07-27T02:18:32.758Z,100985.19
2022-07-27T02:21:02.952Z,100979.75
2022-07-27T02:23:29.294Z,100985.19
2022-07-27T02:25:55.910Z,100979.75
2022-07-27T02:28:22.294Z,100987.94
2022-07-27T02:30:48.672Z,100999.09
2022-07-27T02:33:15.308Z,100996.38
2022-07-27T02:35:42.314Z,100992.03
2022-07-27T02:38:08.983Z,100997.47
2022-07-27T02:40:35.496Z,100984.94
2022-07-27T02:43:01.825Z,100987.41
2022-07-27T02:45:28.165Z,101002.09
2022-07-27T02:47:54.546Z,100998.03
2022-07-27T02:50:21.377Z,100999.69
2022-07-27T02:52:47.943Z,100994.50
2022-07-27T02:55:14.575Z,100994.50
2022-07-27T02:57:41.175Z,101004.31
2022-07-27T03:00:17.630Z,101006.19
2022-07-27T03:02:52.011Z,101002.69
2022-07-27T03:05:18.420Z,100990.13
2022-07-27T03:07:46.639Z,100994.78
2022-07-27T03:10:15.704Z,101003.75
2022-07-27T03:12:51.933Z,100999.41
2022-07-27T03:15:18.394Z,100999.41
2022-07-27T03:17:46.114Z,100996.94
2022-07-27T03:20:13.970Z,101009.50
2022-07-27T03:22:40.293Z,101007.56
2022-07-27T03:25:06.792Z,101007.84
2022-07-27T03:27:33.215Z,101007.06
2022-07-27T03:29:59.600Z,101019.56
2022-07-27T03:32:26.021Z,101009.78
2022-07-27T03:34:52.602Z,101022.56
2022-07-27T03:37:19.154Z,101011.94
2022-07-27T03:39:45.584Z,101001.03
2022-07-27T03:42:12.378Z,101016.31
2022-07-27T03:44:38.799Z,101016.31
2022-07-27T03:47:05.451Z,101017.41
2022-07-27T03:49:31.855Z,101017.41
2022-07-27T03:51:58.338Z,101013.88
2022-07-27T03:54:24.956Z,101019.59
2022-07-27T03:56:51.645Z,101025.03
2022-07-27T03:59:18.447Z,101027.75
2022-07-27T04:01:45.117Z,101027.75
2022-07-27T04:04:11.819Z,101018.75
2022-07-27T04:06:38.173Z,101035.13
2022-07-27T04:09:08.811Z,101023.41
2022-07-27T04:11:35.723Z,101021.50
2022-07-27T04:14:04.564Z,101024.22
2022-07-27T04:16:35.914Z,101012.78
2022-07-27T04:19:12.997Z,101027.50
2022-07-27T04:21:44.378Z,101031.31
2022-07-27T04:24:18.476Z,101019.34
2022-07-27T04:26:44.999Z,101022.56
2022-07-27T04:29:11.855Z,101027.19
2022-07-27T04:31:39.515Z,101022.84
2022-07-27T04:34:05.918Z,101028.84
2022-07-27T04:36:32.342Z,101022.59
2022-07-27T04:38:58.762Z,101024.75
2022-07-27T04:41:30.192Z,101020.41
2022-07-27T04:43:57.047Z,101025.03
2022-07-27T04:46:25.442Z,101030.22
2022-07-27T04:48:51.948Z,101032.41
2022-07-27T04:51:18.588Z,101029.69
2022-07-27T04:53:52.339Z,101023.13
2022-07-27T04:56:24.899Z,101022.31
2022-07-27T04:58:51.362Z,101026.69
2022-07-27T05:01:18.014Z,101021.50
2022-07-27T05:03:44.754Z,101027.50
2022-07-27T05:06:11.315Z,101029.41
2022-07-27T05:08:37.787Z,101025.88
2022-07-27T05:11:04.284Z,101034.88
2022-07-27T05:13:40.515Z,101039.47
2022-07-27T05:16:06.864Z,101038.94
2022-07-27T05:18:33.236Z,101033.75
2022-07-27T05:20:59.937Z,101043.03
2022-07-27T05:23:36.106Z,101044.09
2022-07-27T05:26:02.449Z,101046.81
2022-07-27T05:28:28.863Z,101048.75
2022-07-27T05:30:55.705Z,101049.56
2022-07-27T05:33:22.102Z,101052.28
2022-07-27T05:35:48.481Z,101059.66
2022-07-27T05:38:14.973Z,101054.19
2022-07-27T05:40:41.502Z,101058.56
2022-07-27T05:43:08.414Z,101061.00
2022-07-27T05:45:34.891Z,101060.44
2022-07-27T05:48:01.522Z,101069.72
2022-07-27T05:50:27.900Z,101063.16
2022-07-27T05:52:54.300Z,101070.53
2022-07-27T05:55:21.107Z,101067.56
2022-07-27T05:57:47.680Z,101074.91
2022-07-27T06:00:14.082Z,101079.00
2022-07-27T06:02:40.597Z,101087.69
2022-07-27T06:05:09.417Z,101087.16
2022-07-27T06:07:40.336Z,101093.41
2022-07-27T06:10:06.730Z,101089.88
2022-07-27T06:12:35.249Z,101096.44
2022-07-27T06:15:01.929Z,101086.59
2022-07-27T06:17:28.571Z,101090.16
2022-07-27T06:19:55.091Z,101092.88
2022-07-27T06:22:21.799Z,101107.31
2022-07-27T06:24:58.056Z,101103.78
2022-07-27T06:27:28.577Z,101108.13
2022-07-27T06:29:55.941Z,101113.56
2022-07-27T06:32:22.508Z,101108.13
2022-07-27T06:34:49.746Z,101113.56
2022-07-27T06:37:16.867Z,101117.38
2022-07-27T06:39:45.117Z,101126.38
2022-07-27T06:42:21.334Z,101126.38
2022-07-27T06:44:47.611Z,101128.03
2022-07-27T06:47:13.989Z,101128.03
2022-07-27T06:49:40.578Z,101128.03
2022-07-27T06:52:07.346Z,101131.84
2022-07-27T06:54:34.433Z,101127.19
2022-07-27T06:57:00.856Z,101130.19
2022-07-27T06:59:27.315Z,101127.47
2022-07-27T07:02:19.913Z,101124.72
2022-07-27T07:04:46.218Z,101129.13
2022-07-27T07:07:12.647Z,101129.66
2022-07-27T07:09:38.992Z,101122.00
2022-07-27T07:12:05.439Z,101121.75
2022-07-27T07:14:31.940Z,101130.19
2022-07-27T07:16:58.578Z,101130.19
2022-07-27T07:19:24.958Z,101131.00
2022-07-27T07:21:51.358Z,101135.63
2022-07-27T07:24:17.872Z,101136.47
2022-07-27T07:26:54.129Z,101129.38
2022-07-27T07:29:26.142Z,101128.28
2022-07-27T07:31:52.667Z,101129.38
2022-07-27T07:34:18.996Z,101132.09
2022-07-27T07:36:45.607Z,101135.34
2022-07-27T07:39:12.286Z,101137.28
2022-07-27T07:41:39.228Z,101138.34
2022-07-27T07:44:05.917Z,101136.47
2022-07-27T07:46:32.539Z,101129.91
2022-07-27T07:48:59.317Z,101141.63
2022-07-27T07:51:25.959Z,101145.47
2022-07-27T07:53:52.492Z,101141.63
2022-07-27T07:56:18.877Z,101143.25
2022-07-27T07:58:45.290Z,101146.25
2022-07-27T08:01:11.629Z,101144.38
2022-07-27T08:03:37.957Z,101142.72
2022-07-27T08:06:04.313Z,101139.19
2022-07-27T08:08:30.691Z,101142.72
2022-07-27T08:10:57.123Z,101145.47
2022-07-27T08:13:23.625Z,101150.91
2022-07-27T08:15:50.469Z,101146.25
2022-07-27T08:18:16.786Z,101148.44
2022-07-27T08:20:43.567Z,101147.63
2022-07-27T08:23:09.905Z,101153.91
2022-07-27T08:25:39.284Z,101151.19
2022-07-27T08:28:12.747Z,101156.34
2022-07-27T08:30:39.608Z,101155.53
2022-07-27T08:33:06.182Z,101159.88
2022-07-27T08:35:32.555Z,101163.16
2022-07-27T08:37:59.154Z,101157.97
2022-07-27T08:40:43.404Z,101155.53
2022-07-27T08:43:11.008Z,101150.91
2022-07-27T08:45:37.466Z,101158.25
2022-07-27T08:48:04.082Z,101157.41
2022-07-27T08:50:30.802Z,101169.16
2022-07-27T08:52:57.602Z,101155.53
2022-07-27T08:55:23.960Z,101161.81
2022-07-27T08:57:50.305Z,101157.97
2022-07-27T09:00:16.869Z,101152.53
2022-07-27T09:02:43.461Z,101150.06
2022-07-27T09:05:09.962Z,101157.16
2022-07-27T09:07:42.810Z,101152.81
2022-07-27T09:10:09.200Z,101147.34
2022-07-27T09:12:35.712Z,101145.47
2022-07-27T09:15:02.085Z,101155.53
2022-07-27T09:17:48.562Z,101143.53
2022-07-27T09:20:18.259Z,101150.91
2022-07-27T09:22:45.349Z,101145.47
2022-07-27T09:25:11.780Z,101150.91
2022-07-27T09:27:38.569Z,101145.47
2022-07-27T09:30:05.034Z,101137.56
2022-07-27T09:32:31.440Z,101138.09
2022-07-27T09:34:57.852Z,101138.34
2022-07-27T09:37:24.370Z,101135.63
2022-07-27T09:39:55.880Z,101138.34
2022-07-27T09:43:03.554Z,101141.91
2022-07-27T09:45:08.639Z,101133.72
2022-07-27T09:47:35.980Z,101142.72
2022-07-27T09:50:04.149Z,101140.00
2022-07-27T09:52:30.562Z,101142.72
2022-07-27T09:54:57.024Z,101139.19
2022-07-27T09:57:23.719Z,101131.00
2022-07-27T09:59:50.057Z,101130.19
2022-07-27T10:02:16.584Z,101146.25
2022-07-27T10:04:43.131Z,101141.91
2022-07-27T10:07:13.113Z,101132.63
2022-07-27T10:09:39.935Z,101134.56
2022-07-27T10:12:06.595Z,101132.91
2022-07-27T10:14:33.063Z,101134.84
2022-07-27T10:16:59.628Z,101129.38
2022-07-27T10:19:26.186Z,101126.94
2022-07-27T10:21:52.681Z,101129.91
2022-07-27T10:24:19.312Z,101134.56
2022-07-27T10:26:45.900Z,101127.47
2022-07-27T10:29:14.352Z,101135.34
2022-07-27T10:31:41.109Z,101129.13
2022-07-27T10:34:07.620Z,101129.13
2022-07-27T10:36:34.748Z,101139.19
2022-07-27T10:39:01.163Z,101140.81
2022-07-27T10:41:27.557Z,101132.09
2022-07-27T10:43:54.035Z,101141.06
2022-07-27T10:46:27.782Z,101146.53
2022-07-27T10:48:54.184Z,101142.72
2022-07-27T10:51:21.240Z,101145.72
2022-07-27T10:56:33.947Z,101145.47
2022-07-27T10:59:10.170Z,101146.53
2022-07-27T11:01:37.213Z,101152.53
2022-07-27T11:04:03.575Z,101136.19
2022-07-27T11:06:44.992Z,101141.91
2022-07-27T11:10:02.485Z,101140.81
2022-07-27T11:12:00.911Z,101145.47
2022-07-27T11:14:31.991Z,101137.56
2022-07-27T11:17:17.232Z,101131.28
2022-07-27T11:19:44.855Z,101133.72
2022-07-27T11:22:28.274Z,101129.13
2022-07-27T11:24:55.621Z,101113.84
2022-07-27T11:27:30.398Z,101136.19
2022-07-27T11:30:06.663Z,101132.38
2022-07-27T11:32:33.031Z,101135.34
2022-07-27T11:34:59.685Z,101120.94
2022-07-27T11:37:26.201Z,101135.34
2022-07-27T11:40:04.963Z,101130.75
2022-07-27T11:42:39.291Z,101123.38
2022-07-27T11:45:05.710Z,101142.44
2022-07-27T11:47:32.160Z,101135.34
2022-07-27T11:49:58.604Z,101130.75
2022-07-27T11:52:25.251Z,101130.75
2022-07-27T11:55:01.330Z,101134.25
2022-07-27T11:57:30.263Z,101130.75
2022-07-27T11:59:56.698Z,101131.53
2022-07-27T12:02:23.221Z,101137.81
2022-07-27T12:04:49.727Z,101131.28
2022-07-27T12:07:17.364Z,101134.00
2022-07-27T12:09:43.950Z,101137.81
2022-07-27T12:12:10.533Z,101122.31
2022-07-27T12:14:36.940Z,101116.59
2022-07-27T12:17:03.627Z,101117.38
2022-07-27T12:19:30.087Z,101108.41
2022-07-27T12:21:56.545Z,101108.41
2022-07-27T12:24:23.121Z,101111.66
2022-07-27T12:27:04.430Z,101111.69
2022-07-27T12:29:32.652Z,101115.25
2022-07-27T12:31:59.031Z,101113.63
2022-07-27T12:34:25.583Z,101103.81
2022-07-27T12:36:52.054Z,101108.16
2022-07-27T12:39:18.450Z,101113.34
2022-07-27T12:41:44.811Z,101113.34
2022-07-27T12:44:11.150Z,101120.41
2022-07-27T12:46:37.728Z,101114.97
2022-07-27T12:49:04.267Z,101113.84
2022-07-27T12:51:30.895Z,101115.47
2022-07-27T12:53:57.235Z,101119.88
2022-07-27T12:56:26.969Z,101124.22
2022-07-27T12:58:54.229Z,101128.56
2022-07-27T13:01:20.870Z,101132.91
2022-07-27T13:03:47.319Z,101136.47
2022-07-27T13:06:13.728Z,101116.56
2022-07-27T13:08:40.213Z,101120.13
2022-07-27T13:11:06.867Z,101129.66
2022-07-27T13:13:33.338Z,101116.03
2022-07-27T13:15:59.819Z,101112.22
2022-07-27T13:18:26.302Z,101118.75
2022-07-27T13:20:52.744Z,101109.47
2022-07-27T13:23:19.163Z,101103.22
2022-07-27T13:25:45.798Z,101103.75
2022-07-27T13:28:12.408Z,101108.94
2022-07-27T13:30:38.860Z,101099.94
2022-07-27T13:33:05.373Z,101100.50
2022-07-27T13:35:31.800Z,101103.22
2022-07-27T13:37:58.397Z,101099.38
2022-07-27T13:40:24.898Z,101106.47
2022-07-27T13:42:51.484Z,101104.56
2022-07-27T13:45:17.932Z,101099.91
2022-07-27T13:47:44.446Z,101106.19
2022-07-27T13:50:17.870Z,101102.38
2022-07-27T13:52:45.978Z,101105.66
2022-07-27T13:55:12.954Z,101098.84
2022-07-27T13:57:39.303Z,101111.38
2022-07-27T14:00:10.129Z,101100.19
2022-07-27T14:02:36.499Z,101097.47
2022-07-27T14:05:05.822Z,101105.66
2022-07-27T14:07:32.786Z,101097.22
2022-07-27T14:09:59.146Z,101107.28
2022-07-27T14:12:25.831Z,101098.00
2022-07-27T14:15:02.069Z,101092.56
2022-07-27T14:17:28.418Z,101090.94
2022-07-27T14:19:54.907Z,101091.47
2022-07-27T14:22:22.371Z,101090.66
2022-07-27T14:24:48.725Z,101086.81
2022-07-27T14:27:15.358Z,101082.19
2022-07-27T14:29:41.715Z,101078.38
2022-07-27T14:32:08.259Z,101078.38
2022-07-27T14:34:35.359Z,101079.47
2022-07-27T14:37:01.794Z,101081.94
2022-07-27T14:39:31.030Z,101085.44
2022-07-27T14:41:57.592Z,101080.00
2022-07-27T14:44:28.341Z,101080.84
2022-07-27T14:46:54.857Z,101072.66
2022-07-27T14:49:22.799Z,101075.09
2022-07-27T14:51:49.502Z,101073.19
2022-07-27T14:54:15.934Z,101071.28
2022-07-27T14:56:42.279Z,101074.00
2022-07-27T14:59:08.743Z,101082.19
2022-07-27T15:01:35.254Z,101085.75
2022-07-27T15:04:01.754Z,101079.97
2022-07-27T15:06:28.123Z,101079.19
2022-07-27T15:08:55.472Z,101087.38
2022-07-27T15:11:21.834Z,101076.19
2022-07-27T15:13:48.226Z,101090.63
2022-07-27T15:16:14.675Z,101094.16
2022-07-27T15:18:41.471Z,101086.50
2022-07-27T15:21:13.094Z,101092.78
2022-07-27T15:23:46.166Z,101087.34
2022-07-27T15:26:12.650Z,101084.63
2022-07-27T15:28:39.119Z,101085.44
2022-07-27T15:31:05.892Z,101082.72
2022-07-27T15:33:32.335Z,101093.31
2022-07-27T15:35:59.014Z,101078.63
2022-07-27T15:38:25.487Z,101081.63
2022-07-27T15:40:51.883Z,101082.97
2022-07-27T15:43:18.268Z,101085.41
2022-07-27T15:45:44.682Z,101083.78
2022-07-27T15:48:11.103Z,101085.41
2022-07-27T15:50:37.479Z,101087.03
2022-07-27T15:53:03.906Z,101089.78
2022-07-27T15:55:32.999Z,101090.59
2022-07-27T15:57:59.425Z,101083.22
2022-07-27T16:00:26.240Z,101076.97
2022-07-27T16:02:55.208Z,101080.50
2022-07-27T16:05:23.330Z,101081.59
2022-07-27T16:07:51.078Z,101082.41
2022-07-27T16:10:17.611Z,101076.13
2022-07-27T16:12:44.174Z,101083.22
2022-07-27T16:15:10.609Z,101081.31
2022-07-27T16:17:37.235Z,101084.84
2022-07-27T16:20:04.524Z,101070.13
2022-07-27T16:22:31.273Z,101073.94
2022-07-27T16:24:57.799Z,101069.31
2022-07-27T16:27:24.262Z,101083.78
2022-07-27T16:29:50.626Z,101074.50
2022-07-27T16:32:17.127Z,101067.13
2022-07-27T16:34:43.506Z,101061.13
2022-07-27T16:37:09.891Z,101065.47
2022-07-27T16:39:36.256Z,101067.94
2022-07-27T16:42:02.832Z,101066.31
2022-07-27T16:44:29.458Z,101060.84
2022-07-27T16:46:56.042Z,101058.94
2022-07-27T16:49:22.512Z,101061.69
2022-07-27T16:51:59.830Z,101060.03
2022-07-27T16:54:26.578Z,101062.75
2022-07-27T16:56:53.239Z,101063.59
2022-07-27T16:59:19.795Z,101065.47
2022-07-27T17:01:46.185Z,101060.03
2022-07-27T17:04:12.700Z,101054.56
2022-07-27T17:06:39.178Z,101050.22
2022-07-27T17:09:05.467Z,101057.31
2022-07-27T17:11:32.239Z,101058.13
2022-07-27T17:14:03.814Z,101059.22
2022-07-27T17:16:30.290Z,101059.22
2022-07-27T17:18:56.673Z,101063.03
2022-07-27T17:21:25.015Z,101061.13
2022-07-27T17:23:51.353Z,101054.84
2022-07-27T17:26:17.829Z,101057.88
2022-07-27T17:28:44.173Z,101061.41
2022-07-27T17:31:11.773Z,101055.16
2022-07-27T17:33:38.156Z,101062.50
2022-07-27T17:36:04.655Z,101059.78
2022-07-27T17:38:31.119Z,101058.16
2022-07-27T17:40:57.674Z,101063.59
2022-07-27T17:43:24.350Z,101064.41
2022-07-27T17:45:50.827Z,101070.16
2022-07-27T17:48:17.239Z,101069.34
2022-07-27T17:50:43.625Z,101075.63
2022-07-27T17:53:10.075Z,101077.50
2022-07-27T17:55:37.952Z,101073.16
2022-07-27T17:58:04.543Z,101073.16
2022-07-27T18:00:30.867Z,101075.88
2022-07-27T18:02:58.241Z,101076.97
2022-07-27T18:05:25.063Z,101067.16
2022-07-27T18:07:51.532Z,101074.53
2022-07-27T18:10:17.825Z,101068.78
2022-07-27T18:12:44.181Z,101072.59
2022-07-27T18:15:10.622Z,101068.53
2022-07-27T18:17:36.907Z,101072.09
2022-07-27T18:20:03.307Z,101071.25
2022-07-27T18:22:29.742Z,101066.91
2022-07-27T18:24:56.186Z,101073.47
2022-07-27T18:27:22.499Z,101073.47
2022-07-27T18:29:49.061Z,101081.63
2022-07-27T18:32:15.463Z,101073.72
2022-07-27T18:34:44.654Z,101076.19
2022-07-27T18:37:14.202Z,101079.97
2022-07-27T18:39:40.501Z,101084.06
2022-07-27T18:42:07.140Z,101087.63
2022-07-27T18:44:38.395Z,101084.91
2022-07-27T18:47:05.759Z,101094.97
2022-07-27T18:49:32.244Z,101095.25
2022-07-27T18:51:58.736Z,101095.25
2022-07-27T18:54:25.127Z,101094.47
2022-07-27T18:56:51.488Z,101097.97
2022-07-27T18:59:17.802Z,101106.16
2022-07-27T19:01:44.279Z,101102.91
2022-07-27T19:04:10.663Z,101107.25
2022-07-27T19:06:37.011Z,101103.75
2022-07-27T19:09:03.460Z,101110.53
2022-07-27T19:11:29.869Z,101106.19
2022-07-27T19:13:56.248Z,101111.38
2022-07-27T19:16:22.729Z,101120.63
2022-07-27T19:18:49.129Z,101120.38
2022-07-27T19:21:15.525Z,101125.53
2022-07-27T19:23:41.935Z,101124.47
2022-07-27T19:26:08.337Z,101121.47
2022-07-27T19:28:34.678Z,101130.72
2022-07-27T19:31:01.173Z,101132.91
2022-07-27T19:33:27.782Z,101132.91
2022-07-27T19:35:54.318Z,101129.63
2022-07-27T19:38:20.656Z,101137.50
2022-07-27T19:40:47.094Z,101143.28
2022-07-27T19:43:13.591Z,101137.25
2022-07-27T19:45:40.003Z,101145.16
2022-07-27T19:48:06.395Z,101145.41
2022-07-27T19:50:32.794Z,101141.63
2022-07-27T19:52:59.355Z,101141.09
2022-07-27T19:55:25.724Z,101136.44
2022-07-27T19:57:52.024Z,101132.63
2022-07-27T20:00:18.586Z,101142.47
2022-07-27T20:02:45.056Z,101136.44
2022-07-27T20:05:11.759Z,101146.28
2022-07-27T20:07:38.046Z,101144.91
2022-07-27T20:10:04.420Z,101141.34
2022-07-27T20:12:31.040Z,101145.97
2022-07-27T20:14:57.554Z,101145.19
2022-07-27T20:17:23.908Z,101152.25
2022-07-27T20:19:50.245Z,101155.00
2022-07-27T20:22:16.576Z,101153.91
2022-07-27T20:24:45.325Z,101165.06
2022-07-27T20:27:11.602Z,101162.63
2022-07-27T20:29:38.536Z,101166.44
2022-07-27T20:32:04.885Z,101171.63
2022-07-27T20:34:31.294Z,101173.78
2022-07-27T20:36:57.877Z,101174.88
2022-07-27T20:39:24.753Z,101182.25
2022-07-27T20:41:51.693Z,101187.16
2022-07-27T20:44:18.018Z,101185.53
2022-07-27T20:46:44.407Z,101188.25
2022-07-27T20:49:11.175Z,101196.69
2022-07-27T20:51:37.829Z,101194.25
2022-07-27T20:54:04.555Z,101193.72
2022-07-27T20:56:30.904Z,101193.97
2022-07-27T20:58:57.305Z,101195.88
2022-07-27T21:01:23.961Z,101197.22
2022-07-27T21:03:50.396Z,101191.53
2022-07-27T21:06:16.695Z,101199.97
2022-07-27T21:08:46.639Z,101200.50
2022-07-27T21:11:13.377Z,101198.59
2022-07-27T21:13:39.765Z,101197.78
2022-07-27T21:16:06.313Z,101203.22
2022-07-27T21:18:32.693Z,101207.03
2022-07-27T21:20:59.051Z,101202.94
2022-07-27T21:23:25.354Z,101197.78
2022-07-27T21:25:51.735Z,101202.41
2022-07-27T21:28:23.633Z,101204.31
2022-07-27T21:30:51.346Z,101198.88
2022-07-27T21:33:17.864Z,101203.78
2022-07-27T21:35:44.171Z,101203.22
2022-07-27T21:38:10.517Z,101204.56
2022-07-27T21:40:36.919Z,101210.00
2022-07-27T21:43:03.222Z,101210.28
2022-07-27T21:45:29.614Z,101209.47
2022-07-27T21:47:56.159Z,101215.72
2022-07-27T21:50:23.923Z,101218.19
2022-07-27T21:52:51.382Z,101219.53
2022-07-27T21:55:18.230Z,101216.00
2022-07-27T21:57:49.497Z,101216.81
2022-07-27T22:00:15.884Z,101215.19
2022-07-27T22:02:43.395Z,101215.19
2022-07-27T22:05:09.774Z,101212.72
2022-07-27T22:07:36.123Z,101210.00
2022-07-27T22:10:02.395Z,101219.00
2022-07-27T22:12:28.725Z,101223.34
2022-07-27T22:14:55.154Z,101224.72
2022-07-27T22:17:21.594Z,101221.72
2022-07-27T22:19:47.898Z,101227.19
2022-07-27T22:22:14.269Z,101220.63
2022-07-27T22:24:40.692Z,101229.59
2022-07-27T22:27:06.977Z,101224.72
2022-07-27T22:29:33.896Z,101235.88
2022-07-27T22:32:01.163Z,101236.97
2022-07-27T22:34:27.830Z,101242.69
2022-07-27T22:36:54.270Z,101243.50
2022-07-27T22:39:20.626Z,101243.78
2022-07-27T22:41:47.138Z,101241.31
2022-07-27T22:44:13.988Z,101248.66
2022-07-27T22:46:42.279Z,101244.06
2022-07-27T22:49:08.692Z,101245.13
2022-07-27T22:51:49.609Z,101251.66
2022-07-27T22:54:19.094Z,101256.56
2022-07-27T22:56:45.466Z,101257.41
2022-07-27T22:59:11.754Z,101264.47
2022-07-27T23:01:46.647Z,101265.28
2022-07-27T23:04:23.902Z,101262.00
2022-07-27T23:06:50.334Z,101269.34
2022-07-27T23:09:18.690Z,101269.91
2022-07-27T23:11:45.106Z,101262.56
2022-07-27T23:14:11.904Z,101265.00
2022-07-27T23:16:38.528Z,101267.47
2022-07-27T23:19:04.822Z,101269.88
2022-07-27T23:21:31.374Z,101273.69
2022-07-27T23:23:57.755Z,101273.16
2022-07-27T23:26:25.786Z,101273.69
2022-07-27T23:28:52.654Z,101273.69
2022-07-27T23:31:19.289Z,101276.44
2022-07-27T23:33:45.822Z,101268.50
2022-07-27T23:36:12.139Z,101272.06
2022-07-27T23:38:38.495Z,101271.25
2022-07-27T23:41:04.821Z,101273.44
2022-07-27T23:43:31.163Z,101270.72
2022-07-27T23:45:57.542Z,101278.63
2022-07-27T23:48:25.024Z,101283.22
2022-07-27T23:50:51.819Z,101285.94
2022-07-27T23:53:18.171Z,101274.53
2022-07-27T23:55:44.553Z,101273.69
2022-07-27T23:58:11.017Z,101284.84
